首页
METAR-TAF:

METAR-TAF

机场 :

索尔诺克, 匈牙利

纬度: 47-07N, 经度: 020-14E, 海拔: 89米

当前天气观测

该预报发布于43分钟前的08:15 UTC
风速6节,风向北转西北
温度 5°C
湿度 100%
气压 1014 hPa
能見度: 4500
少量云层高于500英尺
散云层高于2000英尺
阴天层高于4000英尺
小雨, 轻雾

METAR: LHSN 100815Z 34006KT 4500 -RA BR FEW005 SCT020 OVC040 05/05 Q1014 NOSIG RMK GRN

时间: 09:58 (08:58 UTC)

预报

该预报发布于43分钟前的08:15 UTC
预报有效从10日的 09点(UTC)到 10日的 18点(UTC)
风速8节,风向
能見度: 6000
散云层高于700英尺
多云层高于2500英尺
阴天层高于5000英尺
小雨
短暂存在
从 10日的 09点(UTC)到 10日的 12点(UTC)
能見度: 3000
多云层高于500英尺
阴天层高于1500英尺
雨, 轻雾
成为
从 10日的 12点(UTC)到 10日的 14点(UTC)
能見度: 8000
多云层高于3300英尺
阴天层高于8300英尺

TAF: LHSN 100815Z 1009/1018 36008KT 6000 -RA SCT007 BKN025 OVC050 TEMPO 1009/1012 3000 RA BR BKN005 OVC015 BECMG 1012/1014 8000 NSW BKN033 OVC083

超过4000个机场的气象观测和天气预报(METAR&TAF报告)。

可查询的气象台以黄色和红色小点在地图上表示。

将鼠标移到小点上方,可查看气象台名称。

然后点击查看天气观测和预报。

如需切换地图:点击带黑十字的绿色按钮放大地图;点击带横线的绿色按钮缩小地图;或者点击绿色箭头查看邻近地区的地图。


METAR-TAF: